createdAt,value
2023-02-25T00:04:14.336Z,97372.88
2023-02-25T00:07:01.958Z,97338.28
2023-02-25T00:09:49.191Z,97376.63
2023-02-25T00:12:36.523Z,97334.97
2023-02-25T00:15:23.482Z,97334.16
2023-02-25T00:18:03.533Z,97367.13
2023-02-25T00:20:43.531Z,97327.81
2023-02-25T00:23:23.816Z,97307.31
2023-02-25T00:26:09.347Z,97359.47
2023-02-25T00:28:43.845Z,97363.47
2023-02-25T00:31:25.111Z,97332.34
2023-02-25T00:34:03.563Z,97303.06
2023-02-25T00:36:43.775Z,97350.66
2023-02-25T00:39:24.763Z,97300.56
2023-02-25T00:42:03.409Z,97321.38
2023-02-25T00:44:45.574Z,97309.69
2023-02-25T00:47:23.429Z,97353.34
2023-02-25T00:50:04.960Z,97356.53
2023-02-25T00:52:43.462Z,97350.38
2023-02-25T00:55:23.591Z,97350.88
2023-02-25T00:58:04.098Z,97369.88
2023-02-25T01:00:51.721Z,97352.19
2023-02-25T01:03:23.925Z,97390.03
2023-02-25T01:06:03.638Z,97423.84
2023-02-25T01:08:43.737Z,97419.84
2023-02-25T01:11:29.568Z,97434.50
2023-02-25T01:14:08.641Z,97445.69
2023-02-25T01:16:44.857Z,97437.34
2023-02-25T01:19:25.602Z,97476.84
2023-02-25T01:22:03.686Z,97447.50
2023-02-25T01:24:43.409Z,97433.84
2023-02-25T01:27:23.578Z,97439.00
2023-02-25T01:30:03.749Z,97450.63
2023-02-25T01:32:43.590Z,97438.59
2023-02-25T01:35:23.538Z,97454.28
2023-02-25T01:38:03.428Z,97452.78
2023-02-25T01:40:43.465Z,97488.94
2023-02-25T01:43:23.547Z,97467.41
2023-02-25T01:46:03.506Z,97472.88
2023-02-25T01:48:43.702Z,97470.97
2023-02-25T01:51:32.277Z,97519.50
2023-02-25T01:54:15.061Z,97483.91
2023-02-25T01:56:56.421Z,97503.41
2023-02-25T01:59:44.038Z,97512.09
2023-02-25T02:02:36.205Z,97518.66
2023-02-25T02:05:30.351Z,97494.41
2023-02-25T02:08:17.505Z,97503.53
2023-02-25T02:11:05.109Z,97544.75
2023-02-25T02:13:56.761Z,97514.38
2023-02-25T02:17:01.739Z,97559.69
2023-02-25T02:19:49.896Z,97564.56
2023-02-25T02:23:17.239Z,97568.09
2023-02-25T02:26:50.988Z,97573.75
2023-02-25T02:29:45.556Z,97558.63
2023-02-25T02:32:41.851Z,97564.00
2023-02-25T02:35:57.346Z,97557.69
2023-02-25T02:38:59.611Z,97537.19
2023-02-25T02:42:19.464Z,97585.41
2023-02-25T02:45:16.964Z,97585.34
2023-02-25T02:48:09.984Z,97580.50
2023-02-25T02:51:10.592Z,97577.19
2023-02-25T02:54:09.780Z,97591.41
2023-02-25T02:56:59.781Z,97589.78
2023-02-25T02:59:59.265Z,97590.69
2023-02-25T03:03:02.827Z,97573.44
2023-02-25T03:05:53.822Z,97562.81
2023-02-25T03:08:57.065Z,97604.50
2023-02-25T03:11:44.309Z,97600.22
2023-02-25T03:14:31.418Z,97598.97
2023-02-25T03:17:24.121Z,97611.81
2023-02-25T03:20:37.110Z,97610.28
2023-02-25T03:23:29.545Z,97582.28
2023-02-25T03:26:31.492Z,97597.03
2023-02-25T03:29:23.904Z,97606.28
2023-02-25T03:32:16.194Z,97594.97
2023-02-25T03:35:07.127Z,97619.50
2023-02-25T03:38:01.078Z,97609.75
2023-02-25T03:40:50.337Z,97602.63
2023-02-25T03:43:44.479Z,97606.28
2023-02-25T03:46:33.479Z,97602.53
2023-02-25T03:49:26.095Z,97615.19
2023-02-25T03:52:17.771Z,97609.75
2023-02-25T03:55:06.235Z,97614.63
2023-02-25T03:57:53.402Z,97618.47
2023-02-25T04:00:44.015Z,97637.94
2023-02-25T04:03:31.144Z,97624.09
2023-02-25T04:06:23.243Z,97643.19
2023-02-25T04:09:10.537Z,97602.88
2023-02-25T04:11:57.764Z,97621.97
2023-02-25T04:14:44.909Z,97645.13
2023-02-25T04:17:32.594Z,97642.78
2023-02-25T04:20:19.969Z,97611.88
2023-02-25T04:23:07.662Z,97633.59
2023-02-25T04:25:54.761Z,97639.75
2023-02-25T04:28:42.967Z,97615.53
2023-02-25T04:31:30.334Z,97568.13
2023-02-25T04:34:17.610Z,97608.41
2023-02-25T04:37:05.412Z,97582.91
2023-02-25T04:39:52.543Z,97619.25
2023-02-25T04:42:40.147Z,97606.16
2023-02-25T04:45:27.368Z,97601.91
2023-02-25T04:48:14.424Z,97632.03
2023-02-25T04:51:02.776Z,97627.31
2023-02-25T04:53:50.077Z,97617.06
2023-02-25T04:56:38.733Z,97651.84
2023-02-25T04:59:26.821Z,97643.44
2023-02-25T05:02:13.962Z,97623.06
2023-02-25T05:05:01.027Z,97647.19
2023-02-25T05:07:48.392Z,97603.94
2023-02-25T05:10:35.456Z,97639.44
2023-02-25T05:13:22.832Z,97622.84
2023-02-25T05:16:16.808Z,97620.69
2023-02-25T05:19:04.032Z,97652.41
2023-02-25T05:21:52.455Z,97643.03
2023-02-25T05:24:42.822Z,97646.66
2023-02-25T05:27:30.905Z,97618.91
2023-02-25T05:30:19.801Z,97646.28
2023-02-25T05:33:09.343Z,97649.53
2023-02-25T05:35:57.797Z,97654.53
2023-02-25T05:38:49.738Z,97667.66
2023-02-25T05:41:39.286Z,97653.84
2023-02-25T05:44:32.751Z,97585.44
2023-02-25T05:47:20.340Z,97606.91
2023-02-25T05:50:15.530Z,97658.03
2023-02-25T05:53:04.298Z,97604.06
2023-02-25T05:55:59.053Z,97634.19
2023-02-25T05:58:50.403Z,97599.84
2023-02-25T06:01:46.718Z,97609.63
2023-02-25T06:04:34.489Z,97619.22
2023-02-25T06:10:50.181Z,97692.25
2023-02-25T06:13:37.289Z,97701.44
2023-02-25T06:16:32.375Z,97708.75
2023-02-25T06:19:19.986Z,97697.16
2023-02-25T06:22:07.342Z,97690.88
2023-02-25T06:24:54.388Z,97718.19
2023-02-25T06:27:41.548Z,97706.66
2023-02-25T06:30:30.327Z,97716.38
2023-02-25T06:33:17.488Z,97682.91
2023-02-25T06:36:05.272Z,97741.25
2023-02-25T06:38:52.388Z,97721.16
2023-02-25T06:41:39.472Z,97737.66
2023-02-25T06:44:27.836Z,97759.59
2023-02-25T06:47:14.928Z,97746.16
2023-02-25T06:50:02.765Z,97752.31
2023-02-25T06:52:49.948Z,97752.44
2023-02-25T06:55:39.856Z,97729.94
2023-02-25T06:58:27.044Z,97734.97
2023-02-25T07:01:17.403Z,97736.78
2023-02-25T07:04:05.294Z,97719.22
2023-02-25T07:06:52.508Z,97753.28
2023-02-25T07:09:39.664Z,97756.22
2023-02-25T07:12:26.829Z,97733.03
2023-02-25T07:15:13.919Z,97748.53
2023-02-25T07:18:01.043Z,97763.34
2023-02-25T07:23:25.509Z,97740.31
2023-02-25T07:26:13.816Z,97772.16
2023-02-25T07:29:00.860Z,97767.97
2023-02-25T07:31:48.088Z,97760.69
2023-02-25T07:34:36.023Z,97768.09
2023-02-25T07:37:23.149Z,97766.13
2023-02-25T07:40:13.678Z,97763.63
2023-02-25T07:43:00.748Z,97766.13
2023-02-25T07:45:51.037Z,97772.94
2023-02-25T07:48:38.170Z,97768.72
2023-02-25T07:51:26.566Z,97757.00
2023-02-25T07:54:16.452Z,97751.97
2023-02-25T07:57:03.773Z,97769.03
2023-02-25T07:59:50.868Z,97790.84
2023-02-25T08:02:38.177Z,97770.59
2023-02-25T08:05:25.289Z,97772.09
2023-02-25T08:08:13.238Z,97762.22
2023-02-25T08:11:05.239Z,97779.69
2023-02-25T08:13:54.666Z,97802.31
2023-02-25T08:16:43.819Z,97771.16
2023-02-25T08:19:34.846Z,97796.16
2023-02-25T08:22:21.905Z,97795.03
2023-02-25T08:25:10.758Z,97799.78
2023-02-25T08:28:04.617Z,97813.06
2023-02-25T08:30:51.862Z,97804.38
2023-02-25T08:33:41.970Z,97809.84
2023-02-25T08:36:31.351Z,97806.34
2023-02-25T08:39:27.426Z,97813.63
2023-02-25T08:42:33.140Z,97814.69
2023-02-25T08:45:43.351Z,97813.59
2023-02-25T08:48:32.727Z,97820.69
2023-02-25T08:51:23.823Z,97821.97
2023-02-25T08:54:17.120Z,97824.06
2023-02-25T08:57:05.902Z,97822.41
2023-02-25T09:00:07.031Z,97834.78
2023-02-25T09:02:54.093Z,97828.16
2023-02-25T09:05:41.211Z,97841.16
2023-02-25T09:08:28.540Z,97827.63
2023-02-25T09:11:16.575Z,97836.69
2023-02-25T09:14:04.044Z,97838.28
2023-02-25T09:17:05.096Z,97829.50
2023-02-25T09:20:11.595Z,97835.16
2023-02-25T09:22:59.805Z,97840.03
2023-02-25T09:25:48.363Z,97817.84
2023-02-25T09:28:35.973Z,97825.06
2023-02-25T09:31:26.110Z,97820.94
2023-02-25T09:34:14.102Z,97820.09
2023-02-25T09:37:04.221Z,97831.84
2023-02-25T09:39:51.290Z,97830.44
2023-02-25T09:43:01.225Z,97822.22
2023-02-25T09:45:51.266Z,97830.88
2023-02-25T09:48:40.845Z,97829.38
2023-02-25T09:51:40.590Z,97812.00
2023-02-25T09:54:38.589Z,97803.69
2023-02-25T09:57:25.689Z,97812.81
2023-02-25T10:00:20.982Z,97828.41
2023-02-25T10:03:36.114Z,97831.72
2023-02-25T10:06:44.855Z,97837.34
2023-02-25T10:09:46.236Z,97822.22
2023-02-25T10:12:46.090Z,97786.28
2023-02-25T10:15:58.724Z,97824.06
2023-02-25T10:18:55.122Z,97819.22
2023-02-25T10:22:01.014Z,97806.88
2023-02-25T10:25:01.148Z,97797.69
2023-02-25T10:27:55.194Z,97802.19
2023-02-25T10:31:08.144Z,97803.50
2023-02-25T10:33:58.404Z,97784.31
2023-02-25T10:36:52.594Z,97814.72
2023-02-25T10:39:42.388Z,97840.19
2023-02-25T10:42:37.274Z,97812.88
2023-02-25T10:45:40.934Z,97789.47
2023-02-25T10:49:06.252Z,97812.81
2023-02-25T10:52:03.565Z,97816.88
2023-02-25T10:54:52.741Z,97805.28
2023-02-25T10:57:51.273Z,97802.28
2023-02-25T11:00:38.908Z,97784.69
2023-02-25T11:03:29.601Z,97823.44
2023-02-25T11:06:45.239Z,97817.56
2023-02-25T11:09:37.172Z,97801.47
2023-02-25T11:12:50.925Z,97804.63
2023-02-25T11:19:59.543Z,97788.78
2023-02-25T11:22:47.037Z,97787.81
2023-02-25T11:25:44.460Z,97794.41
2023-02-25T11:28:33.224Z,97803.50
2023-02-25T11:31:24.803Z,97808.06
2023-02-25T11:35:08.169Z,97798.25
2023-02-25T11:37:58.140Z,97779.31
2023-02-25T11:40:55.844Z,97771.41
2023-02-25T11:43:42.982Z,97757.41
2023-02-25T11:46:33.026Z,97756.56
2023-02-25T11:49:47.971Z,97759.19
2023-02-25T11:53:13.631Z,97756.59
2023-02-25T11:56:22.872Z,97744.94
2023-02-25T11:59:39.071Z,97753.53
2023-02-25T12:02:53.910Z,97757.75
2023-02-25T12:06:23.522Z,97758.38
2023-02-25T12:09:47.229Z,97737.16
2023-02-25T12:16:56.299Z,97754.34
2023-02-25T12:20:05.120Z,97747.63
2023-02-25T12:23:37.180Z,97731.84
2023-02-25T12:26:44.170Z,97732.53
2023-02-25T12:30:20.926Z,97745.56
2023-02-25T12:33:45.612Z,97742.81
2023-02-25T12:37:07.387Z,97738.69
2023-02-25T12:40:31.605Z,97735.63
2023-02-25T12:44:01.338Z,97732.06
2023-02-25T12:47:37.014Z,97729.16
2023-02-25T12:50:27.344Z,97731.97
2023-02-25T12:53:29.493Z,97733.97
2023-02-25T12:56:35.828Z,97724.16
2023-02-25T13:00:09.417Z,97727.44
2023-02-25T13:03:07.270Z,97718.69
2023-02-25T13:06:15.814Z,97715.47
2023-02-25T13:09:17.046Z,97701.47
2023-02-25T13:12:14.390Z,97704.72
2023-02-25T13:15:25.386Z,97706.81
2023-02-25T13:19:03.869Z,97699.47
2023-02-25T13:22:07.624Z,97703.19
2023-02-25T13:25:20.190Z,97692.63
2023-02-25T13:28:35.708Z,97699.56
2023-02-25T13:31:41.053Z,97705.06
2023-02-25T13:34:28.189Z,97692.06
2023-02-25T13:37:38.037Z,97694.78
2023-02-25T13:40:58.962Z,97711.59
2023-02-25T13:44:11.086Z,97716.75
2023-02-25T13:47:49.759Z,97720.22
2023-02-25T13:51:16.484Z,97702.47
2023-02-25T13:54:25.370Z,97679.59
2023-02-25T13:57:42.425Z,97696.13
2023-02-25T14:01:00.791Z,97712.44
2023-02-25T14:03:54.108Z,97724.91
2023-02-25T14:06:54.768Z,97724.88
2023-02-25T14:10:15.527Z,97734.19
2023-02-25T14:13:20.493Z,97701.69
2023-02-25T14:16:50.438Z,97696.09
2023-02-25T14:20:23.466Z,97742.88
2023-02-25T14:23:31.604Z,97739.44
2023-02-25T14:26:37.681Z,97745.81
2023-02-25T14:29:52.646Z,97724.56
2023-02-25T14:32:49.264Z,97746.28
2023-02-25T14:35:53.837Z,97735.13
2023-02-25T14:39:14.803Z,97703.75
2023-02-25T14:42:18.897Z,97686.09
2023-02-25T14:45:09.936Z,97756.50
2023-02-25T14:48:10.844Z,97763.53
2023-02-25T14:51:13.365Z,97755.44
2023-02-25T14:54:21.840Z,97696.69
2023-02-25T14:58:03.186Z,97762.69
2023-02-25T15:01:16.935Z,97756.69
2023-02-25T15:04:07.930Z,97765.28
2023-02-25T15:07:20.546Z,97770.72
2023-02-25T15:10:26.522Z,97774.91
2023-02-25T15:13:39.782Z,97776.19
2023-02-25T15:17:12.427Z,97794.00
2023-02-25T15:20:24.128Z,97803.81
2023-02-25T15:23:17.493Z,97736.34
2023-02-25T15:26:32.409Z,97813.88
2023-02-25T15:29:29.229Z,97804.50
2023-02-25T15:32:26.288Z,97788.34
2023-02-25T15:35:20.986Z,97805.56
2023-02-25T15:38:21.717Z,97804.50
2023-02-25T15:41:27.997Z,97817.59
2023-02-25T15:44:16.673Z,97813.53
2023-02-25T15:47:30.711Z,97819.97
2023-02-25T15:50:43.637Z,97829.47
2023-02-25T15:53:45.699Z,97786.34
2023-02-25T15:56:49.316Z,97770.44
2023-02-25T15:59:54.289Z,97802.16
2023-02-25T16:02:42.408Z,97802.19
2023-02-25T16:05:38.260Z,97796.31
2023-02-25T16:08:34.172Z,97786.38
2023-02-25T16:11:34.554Z,97836.97
2023-02-25T16:14:43.851Z,97757.91
2023-02-25T16:17:36.061Z,97761.25
2023-02-25T16:20:30.992Z,97745.47
2023-02-25T16:23:22.196Z,97815.31
2023-02-25T16:26:33.183Z,97818.38
2023-02-25T16:30:14.578Z,97833.47
2023-02-25T16:33:41.878Z,97774.91
2023-02-25T16:36:34.238Z,97831.63
2023-02-25T16:39:25.304Z,97774.75
2023-02-25T16:42:17.332Z,97786.78
2023-02-25T16:45:07.939Z,97765.81
2023-02-25T16:48:02.050Z,97799.91
2023-02-25T16:50:56.775Z,97809.00
2023-02-25T16:53:48.686Z,97808.19
2023-02-25T16:56:39.560Z,97786.09
2023-02-25T16:59:32.614Z,97782.03
2023-02-25T17:02:25.158Z,97838.22
2023-02-25T17:05:40.356Z,97847.72
2023-02-25T17:08:30.660Z,97862.13
2023-02-25T17:11:34.382Z,97792.06
2023-02-25T17:14:26.426Z,97794.63
2023-02-25T17:17:26.198Z,97800.75
2023-02-25T17:20:24.643Z,97823.94
2023-02-25T17:23:15.239Z,97841.84
2023-02-25T17:26:03.810Z,97889.25
2023-02-25T17:28:56.348Z,97887.03
2023-02-25T17:31:53.723Z,97879.03
2023-02-25T17:34:44.293Z,97896.38
2023-02-25T17:37:34.185Z,97910.63
2023-02-25T17:40:27.770Z,97918.03
2023-02-25T17:43:24.380Z,97928.34
2023-02-25T17:46:25.703Z,97949.06
2023-02-25T17:49:43.147Z,97956.63
2023-02-25T17:52:33.727Z,97951.66
2023-02-25T17:55:33.905Z,97949.50
2023-02-25T17:58:25.537Z,97955.06
2023-02-25T18:01:23.441Z,97964.72
2023-02-25T18:04:32.975Z,97967.25
2023-02-25T18:07:33.997Z,97960.22
2023-02-25T18:10:24.399Z,98012.28
2023-02-25T18:13:22.135Z,98016.47
2023-02-25T18:16:13.452Z,98025.09
2023-02-25T18:19:02.188Z,97998.97
2023-02-25T18:21:49.800Z,97962.69
2023-02-25T18:24:38.780Z,98009.25
2023-02-25T18:27:33.124Z,98022.78
2023-02-25T18:30:24.339Z,98008.94
2023-02-25T18:33:12.564Z,97975.63
2023-02-25T18:36:00.551Z,98008.38
2023-02-25T18:38:48.504Z,97998.53
2023-02-25T18:41:36.427Z,98033.53
2023-02-25T18:44:24.528Z,98005.63
2023-02-25T18:47:13.410Z,98018.59
2023-02-25T18:50:01.418Z,98022.34
2023-02-25T18:52:50.448Z,98016.19
2023-02-25T18:55:38.709Z,97992.28
2023-02-25T18:58:27.577Z,98000.44
2023-02-25T19:01:26.235Z,97993.59
2023-02-25T19:04:17.438Z,97994.91
2023-02-25T19:07:11.782Z,97992.66
2023-02-25T19:10:01.344Z,97995.50
2023-02-25T19:12:51.609Z,98004.66
2023-02-25T19:15:39.690Z,98000.44
2023-02-25T19:18:28.906Z,97982.06
2023-02-25T19:21:31.199Z,97906.13
2023-02-25T19:24:21.488Z,97926.19
2023-02-25T19:27:18.645Z,97976.88
2023-02-25T19:29:59.368Z,97961.03
2023-02-25T19:32:34.658Z,97940.72
2023-02-25T19:35:14.208Z,97991.75
2023-02-25T19:37:54.895Z,97995.47
2023-02-25T19:40:37.520Z,97986.50
2023-02-25T19:43:18.297Z,97964.97
2023-02-25T19:45:57.157Z,97923.66
2023-02-25T19:48:34.758Z,97949.50
2023-02-25T19:51:17.328Z,97932.06
2023-02-25T19:54:06.977Z,97911.75
2023-02-25T19:56:44.331Z,97988.91
2023-02-25T20:18:33.194Z,97921.84
2023-02-25T20:24:02.243Z,97935.06
2023-02-25T20:26:50.867Z,97961.03
2023-02-25T20:32:20.264Z,97939.88
2023-02-25T20:46:35.349Z,97968.38
2023-02-25T20:51:50.026Z,98031.13
2023-02-25T20:54:44.259Z,97956.47
2023-02-25T21:03:05.776Z,97963.31
2023-02-25T21:05:44.417Z,97975.47
2023-02-25T21:19:18.873Z,98043.38
2023-02-25T21:22:09.658Z,98062.59
2023-02-25T21:24:58.430Z,98049.88
2023-02-25T21:27:45.852Z,98058.28
2023-02-25T21:30:34.294Z,98049.63
2023-02-25T21:33:21.829Z,98062.38
2023-02-25T21:36:10.752Z,98062.38
2023-02-25T21:39:02.781Z,98080.53
2023-02-25T21:41:49.891Z,98083.66
2023-02-25T21:44:37.268Z,98082.59
2023-02-25T21:47:24.772Z,98089.78
2023-02-25T21:50:12.650Z,98087.00
2023-02-25T21:53:00.672Z,98076.09
2023-02-25T21:55:48.499Z,98092.22
2023-02-25T21:58:35.830Z,98087.25
2023-02-25T22:01:26.601Z,98085.81
2023-02-25T22:04:13.849Z,98091.69
2023-02-25T22:07:00.945Z,98091.72
2023-02-25T22:09:47.978Z,98091.09
2023-02-25T22:12:35.143Z,98091.47
2023-02-25T22:15:22.376Z,98091.81
2023-02-25T22:18:09.437Z,98096.75
2023-02-25T22:21:18.850Z,98101.19
2023-02-25T22:24:07.456Z,98111.34
2023-02-25T22:26:54.515Z,98113.03
2023-02-25T22:29:41.664Z,98105.06
2023-02-25T22:32:28.853Z,98107.72
2023-02-25T22:35:16.204Z,98100.75
2023-02-25T22:38:03.305Z,98103.50
2023-02-25T22:40:51.519Z,98098.78
2023-02-25T22:43:39.952Z,98109.50
2023-02-25T22:46:38.286Z,98111.66
2023-02-25T22:49:25.442Z,98114.09
2023-02-25T22:52:12.596Z,98110.59
2023-02-25T22:54:59.620Z,98121.06
2023-02-25T22:57:46.695Z,98118.31
2023-02-25T23:00:43.421Z,98127.31
2023-02-25T23:03:30.690Z,98129.59
2023-02-25T23:06:20.688Z,98134.53
2023-02-25T23:09:09.127Z,98122.16
2023-02-25T23:11:56.251Z,98116.72
2023-02-25T23:14:43.589Z,98120.59
2023-02-25T23:17:30.620Z,98129.13
2023-02-25T23:20:17.867Z,98135.16
2023-02-25T23:23:07.065Z,98151.25
2023-02-25T23:25:54.668Z,98143.78
2023-02-25T23:28:42.327Z,98149.69
2023-02-25T23:31:32.568Z,98155.56
2023-02-25T23:34:23.171Z,98158.84
2023-02-25T23:37:11.441Z,98150.91
2023-02-25T23:39:58.519Z,98152.81
2023-02-25T23:42:46.126Z,98150.53
2023-02-25T23:45:33.352Z,98151.47
2023-02-25T23:48:20.491Z,98141.84
2023-02-25T23:51:08.877Z,98152.94
2023-02-25T23:53:58.474Z,98151.50
2023-02-25T23:56:45.751Z,98158.97
2023-02-25T23:59:32.913Z,98158.34
